Time;durP1;ratioP1;P1;durP2;ratioP2;P2;SDS_P1;SDS_P2;PMS_P1;PMS_P2;Temp;Humidity;BMP_temperature;BMP_pressure;BME280_temperature;BME280_humidity;BME280_pressure;Samples;Min_cycle;Max_cycle;Signal;HPM_P1;HPM_P2
2022/02/16 03:47:12;;;;;;;20.20;14.25;;;8.20;97.10;;;;;;4911079;24;20436;-82
2022/02/16 03:49:38;;;;;;;17.98;13.82;;;8.20;97.10;;;;;;4744812;30;20063;-82
2022/02/16 03:52:04;;;;;;;19.60;13.90;;;8.20;97.00;;;;;;4730255;30;20040;-82
2022/02/16 03:54:30;;;;;;;19.80;13.45;;;8.10;96.90;;;;;;4730203;30;20111;-81
2022/02/16 03:56:58;;;;;;;23.85;14.00;;;8.20;96.90;;;;;;4730329;30;20066;-82
2022/02/16 03:59:24;;;;;;;16.75;13.20;;;8.20;96.70;;;;;;4744722;30;20037;-82
2022/02/16 04:02:13;;;;;;;18.33;13.27;;;8.20;96.60;;;;;;4722010;30;20552;-82
2022/02/16 04:04:40;;;;;;;19.25;13.40;;;8.20;96.50;;;;;;4697925;30;20037;-82
2022/02/16 04:07:06;;;;;;;16.20;12.53;;;8.20;96.40;;;;;;4697715;30;20037;-82
2022/02/16 04:09:32;;;;;;;19.02;13.00;;;8.20;96.40;;;;;;4697625;30;20036;-81
2022/02/16 04:11:58;;;;;;;16.45;12.00;;;8.20;96.40;;;;;;4697558;30;20045;-82
2022/02/16 04:14:24;;;;;;;17.45;12.07;;;8.20;96.10;;;;;;4697356;30;20067;-82
2022/02/16 04:16:50;;;;;;;19.10;12.60;;;8.20;96.30;;;;;;4705745;30;20071;-82
2022/02/16 04:19:16;;;;;;;15.82;12.30;;;8.20;96.20;;;;;;4696852;30;20312;-82
2022/02/16 04:21:42;;;;;;;15.40;11.55;;;8.20;96.20;;;;;;4711742;30;20087;-82
2022/02/16 04:24:09;;;;;;;16.45;12.57;;;8.20;96.10;;;;;;4697794;30;20428;-82
2022/02/16 04:26:35;;;;;;;15.70;11.90;;;8.30;96.00;;;;;;4697107;30;20045;-82
2022/02/16 04:29:01;;;;;;;12.80;10.30;;;8.30;96.00;;;;;;4711774;30;20041;-82
2022/02/16 04:31:35;;;;;;;13.27;10.60;;;8.30;95.70;;;;;;4698040;30;20048;-82
2022/02/16 04:34:01;;;;;;;15.70;10.30;;;8.30;95.70;;;;;;4697170;30;20037;-80
2022/02/16 04:36:26;;;;;;;12.38;9.65;;;8.30;95.70;;;;;;4711549;30;20038;-82
2022/02/16 04:38:57;;;;;;;12.90;9.77;;;8.30;95.50;;;;;;4694785;30;20094;-82
2022/02/16 04:41:23;;;;;;;11.77;9.23;;;8.30;95.50;;;;;;4744175;30;20041;-82
2022/02/16 04:43:49;;;;;;;12.70;8.02;;;8.20;95.30;;;;;;4758690;30;20194;-82
2022/02/16 04:46:16;;;;;;;10.82;7.57;;;8.20;95.00;;;;;;4740923;30;20073;-82
2022/02/16 04:48:42;;;;;;;11.33;7.50;;;8.10;94.90;;;;;;4712131;30;20044;-82
2022/02/16 04:51:08;;;;;;;15.18;7.10;;;8.10;94.80;;;;;;4726274;30;20309;-82
2022/02/16 04:53:35;;;;;;;10.13;6.77;;;8.10;94.50;;;;;;4712188;30;20352;-82
2022/02/16 04:56:01;;;;;;;8.90;6.82;;;8.10;94.60;;;;;;4712230;30;20036;-82
2022/02/16 04:58:32;;;;;;;10.27;6.32;;;8.10;94.20;;;;;;4713044;30;20051;-82
2022/02/16 05:00:58;;;;;;;7.82;5.95;;;8.10;94.00;;;;;;4697683;30;20108;-82
2022/02/16 05:03:28;;;;;;;6.78;5.38;;;8.10;93.90;;;;;;4726478;30;20124;-82
2022/02/16 05:05:55;;;;;;;;;;;8.10;93.90;;;;;;4726771;30;20037;-82
2022/02/16 05:08:21;;;;;;;8.03;5.47;;;8.10;93.70;;;;;;4711655;30;20322;-82
2022/02/16 05:10:47;;;;;;;11.80;5.13;;;8.10;93.50;;;;;;4697462;30;20041;-82
2022/02/16 05:13:22;;;;;;;7.65;5.03;;;8.10;93.10;;;;;;4727252;30;20309;-82
2022/02/16 05:15:49;;;;;;;8.50;5.67;;;8.10;93.00;;;;;;4726180;30;20057;-82
2022/02/16 05:18:15;;;;;;;8.25;6.10;;;8.10;93.20;;;;;;4697300;30;20279;-82
2022/02/16 05:20:52;;;;;;;11.25;6.05;;;8.10;93.10;;;;;;4700088;30;20037;-82
2022/02/16 05:23:18;;;;;;;9.07;5.80;;;8.00;93.00;;;;;;4726107;30;20075;-82
2022/02/16 05:25:49;;;;;;;9.75;5.97;;;8.00;93.00;;;;;;4726669;30;20120;-82
2022/02/16 05:28:15;;;;;;;9.93;6.97;;;8.00;93.10;;;;;;4711339;30;20037;-82
2022/02/16 05:30:41;;;;;;;9.68;6.18;;;8.00;93.20;;;;;;4711332;30;20344;-82
2022/02/16 05:33:10;;;;;;;11.88;7.22;;;7.90;93.20;;;;;;4711630;30;20044;-82
2022/02/16 05:35:36;;;;;;;9.25;6.60;;;7.80;93.30;;;;;;4711631;30;20110;-82
2022/02/16 05:38:03;;;;;;;9.35;6.68;;;7.70;93.40;;;;;;4711280;30;20029;-82
2022/02/16 05:40:32;;;;;;;9.65;6.90;;;7.70;93.50;;;;;;4697802;30;20280;-82
2022/02/16 05:42:58;;;;;;;9.38;7.28;;;7.60;93.60;;;;;;4725660;30;20036;-82
2022/02/16 05:45:25;;;;;;;10.75;6.93;;;7.60;93.60;;;;;;4711252;30;20525;-82
2022/02/16 05:47:52;;;;;;;12.13;7.38;;;7.50;93.70;;;;;;4725890;30;20041;-82
2022/02/16 05:50:18;;;;;;;13.50;8.00;;;7.40;93.80;;;;;;4711039;30;20033;-82
2022/02/16 05:52:46;;;;;;;9.25;6.82;;;7.40;93.90;;;;;;4726013;30;20395;-82
2022/02/16 05:55:12;;;;;;;12.25;7.63;;;7.20;94.20;;;;;;4701096;30;20033;-82
2022/02/16 05:57:39;;;;;;;13.35;8.05;;;7.10;94.20;;;;;;4729454;30;20025;-81
2022/02/16 06:00:06;;;;;;;12.55;7.90;;;7.10;94.30;;;;;;4728315;30;20363;-82
2022/02/16 06:02:38;;;;;;;12.60;8.20;;;6.90;94.70;;;;;;4715322;30;20264;-82
2022/02/16 06:05:07;;;;;;;11.82;8.00;;;6.80;94.60;;;;;;4728521;30;20045;-82
2022/02/16 06:07:33;;;;;;;11.48;7.63;;;6.70;94.60;;;;;;4702481;30;20033;-81
2022/02/16 06:09:59;;;;;;;12.48;8.13;;;6.60;94.80;;;;;;4716112;30;20109;-81
2022/02/16 06:12:25;;;;;;;13.30;7.82;;;6.50;94.90;;;;;;4731709;30;20032;-81
2022/02/16 06:14:51;;;;;;;13.20;8.13;;;6.40;95.20;;;;;;4729736;30;20129;-81
2022/02/16 06:17:17;;;;;;;11.43;8.77;;;6.30;95.60;;;;;;4723974;30;20049;-81
2022/02/16 06:19:45;;;;;;;14.13;9.20;;;6.20;96.00;;;;;;4714931;30;20128;-81
2022/02/16 06:22:11;;;;;;;13.40;9.15;;;6.20;96.40;;;;;;4714517;30;20087;-81
2022/02/16 06:24:37;;;;;;;15.77;9.63;;;6.30;96.30;;;;;;4727631;30;20048;-82
2022/02/16 06:27:04;;;;;;;13.60;9.87;;;6.20;96.30;;;;;;4703966;30;20053;-82
2022/02/16 06:29:30;;;;;;;13.27;8.60;;;6.20;96.20;;;;;;4728983;30;20029;-81
2022/02/16 06:32:14;;;;;;;17.50;9.90;;;6.20;96.30;;;;;;4728889;30;20096;-81
2022/02/16 06:34:41;;;;;;;15.38;9.73;;;6.10;96.30;;;;;;4728161;30;20268;-81
2022/02/16 06:37:07;;;;;;;15.95;9.32;;;6.00;96.40;;;;;;4703491;30;20124;-81
2022/02/16 06:39:33;;;;;;;14.02;9.25;;;6.00;96.70;;;;;;4735633;30;20041;-81
2022/02/16 06:41:59;;;;;;;15.45;9.43;;;5.90;96.90;;;;;;4724824;30;20277;-81
2022/02/16 06:44:25;;;;;;;14.80;8.65;;;5.90;96.80;;;;;;4728594;30;20345;-81
2022/02/16 06:46:51;;;;;;;16.05;10.55;;;5.90;96.70;;;;;;4708139;30;20152;-81
2022/02/16 06:49:18;;;;;;;14.23;9.43;;;6.00;96.70;;;;;;4711496;30;20041;-81
2022/02/16 06:51:48;;;;;;;15.90;9.75;;;5.90;96.70;;;;;;4699226;30;20037;-81
2022/02/16 06:54:14;;;;;;;13.45;8.90;;;6.10;96.80;;;;;;4698190;30;20041;-80
2022/02/16 06:56:40;;;;;;;14.32;8.90;;;6.30;96.90;;;;;;4707167;30;20218;-81
2022/02/16 06:59:30;;;;;;;15.55;9.93;;;6.60;96.30;;;;;;4722657;30;20049;-81
2022/02/16 07:02:02;;;;;;;14.18;9.52;;;6.60;95.70;;;;;;4721075;30;20052;-82
2022/02/16 07:04:28;;;;;;;13.48;8.60;;;6.50;95.90;;;;;;4732244;30;20108;-82
2022/02/16 07:06:55;;;;;;;20.40;9.00;;;6.50;96.10;;;;;;4709015;30;20040;-82
2022/02/16 07:09:23;;;;;;;14.25;8.52;;;6.50;96.50;;;;;;4721354;30;20033;-82
2022/02/16 07:11:51;;;;;;;16.05;9.00;;;6.50;96.90;;;;;;4706758;30;20059;-82
2022/02/16 07:14:25;;;;;;;17.10;7.93;;;6.60;96.90;;;;;;4718075;30;20033;-82
2022/02/16 07:16:51;;;;;;;11.93;7.55;;;6.70;96.70;;;;;;4730299;30;20036;-81
2022/02/16 07:19:22;;;;;;;10.40;6.82;;;6.70;96.80;;;;;;4710728;30;20033;-82
2022/02/16 07:22:04;;;;;;;12.80;6.72;;;6.80;96.70;;;;;;4713446;30;20036;-82
2022/02/16 07:24:30;;;;;;;11.73;6.13;;;6.90;96.80;;;;;;4721329;30;20037;-82
2022/02/16 07:26:59;;;;;;;12.40;6.28;;;7.00;96.90;;;;;;4732738;30;20041;-82
2022/02/16 07:29:26;;;;;;;10.27;6.60;;;7.10;96.70;;;;;;4719249;30;20094;-82
2022/02/16 07:31:52;;;;;;;9.15;5.63;;;7.30;96.50;;;;;;4713768;30;20033;-82
2022/02/16 07:34:19;;;;;;;10.55;5.63;;;7.50;96.20;;;;;;4705337;30;20032;-82
2022/02/16 07:36:45;;;;;;;7.65;5.15;;;7.60;95.50;;;;;;4705647;30;20061;-82
2022/02/16 07:39:11;;;;;;;7.30;4.75;;;7.70;95.20;;;;;;4731500;30;20059;-82
2022/02/16 07:41:37;;;;;;;8.77;3.95;;;7.80;94.80;;;;;;4718618;30;20232;-81
2022/02/16 07:44:27;;;;;;;8.45;4.07;;;7.80;94.30;;;;;;4719294;30;20056;-82
2022/02/16 07:46:58;;;;;;;7.00;4.10;;;8.00;93.80;;;;;;4696912;30;20103;-82
2022/02/16 07:49:25;;;;;;;7.35;3.42;;;8.10;93.50;;;;;;4725804;30;20053;-82
2022/02/16 07:52:09;;;;;;;11.18;4.30;;;8.20;92.80;;;;;;4722618;30;20436;-82
2022/02/16 07:54:50;;;;;;;7.78;4.10;;;8.30;92.60;;;;;;4722519;30;20029;-82
2022/02/16 07:57:21;;;;;;;6.93;3.33;;;8.40;92.20;;;;;;4732187;30;20040;-82
2022/02/16 07:59:48;;;;;;;11.30;3.78;;;8.50;91.80;;;;;;4705513;30;20033;-82
2022/02/16 08:02:14;;;;;;;11.07;4.70;;;8.60;91.70;;;;;;4706703;30;20051;-81
2022/02/16 08:04:40;;;;;;;6.47;3.63;;;8.70;91.00;;;;;;4730332;30;20489;-82
2022/02/16 08:07:06;;;;;;;9.15;2.97;;;8.80;90.90;;;;;;4729500;30;20120;-82
2022/02/16 08:09:34;;;;;;;8.32;4.10;;;8.90;90.00;;;;;;4721121;30;20033;-82
2022/02/16 08:12:00;;;;;;;9.45;3.60;;;8.90;90.20;;;;;;4689785;30;20080;-82
2022/02/16 08:14:26;;;;;;;11.38;3.50;;;9.00;90.40;;;;;;4696951;30;20029;-82
2022/02/16 08:16:56;;;;;;;6.15;4.07;;;9.10;90.70;;;;;;4711915;30;20029;-82
2022/02/16 08:19:23;;;;;;;8.38;3.80;;;9.00;90.40;;;;;;4712487;30;20036;-82
2022/02/16 08:21:53;;;;;;;10.55;4.47;;;9.00;90.50;;;;;;4726441;30;20348;-82
2022/02/16 08:24:19;;;;;;;6.25;3.97;;;9.10;91.00;;;;;;4712260;30;20029;-82
2022/02/16 08:26:48;;;;;;;6.38;4.05;;;9.10;90.70;;;;;;4726735;30;20365;-82
2022/02/16 08:29:16;;;;;;;7.80;3.63;;;9.20;90.30;;;;;;4725762;30;20344;-82
2022/02/16 08:31:45;;;;;;;;;;;9.30;90.20;;;;;;4712205;30;20041;-82
2022/02/16 08:34:11;;;;;;;11.35;5.00;;;9.30;90.10;;;;;;4726434;30;19945;-82
2022/02/16 08:36:55;;;;;;;6.05;3.95;;;9.40;90.30;;;;;;4700085;30;20067;-82
2022/02/16 08:39:25;;;;;;;7.97;4.50;;;9.60;90.30;;;;;;4697367;30;20064;-82
2022/02/16 08:41:55;;;;;;;9.68;6.00;;;9.60;90.20;;;;;;4711558;30;20065;-82
2022/02/16 08:44:21;;;;;;;8.90;5.63;;;9.60;90.40;;;;;;4725815;30;20341;-82
2022/02/16 08:46:47;;;;;;;8.10;4.93;;;9.60;90.20;;;;;;4696699;30;20230;-82
2022/02/16 08:49:13;;;;;;;11.13;5.38;;;9.60;90.10;;;;;;4725810;30;20044;-82
2022/02/16 08:51:39;;;;;;;8.05;5.40;;;9.70;90.40;;;;;;4725892;30;20037;-82
2022/02/16 08:54:05;;;;;;;9.27;5.25;;;9.70;90.30;;;;;;4725657;30;20308;-82
2022/02/16 08:56:31;;;;;;;9.40;5.55;;;9.70;90.50;;;;;;4711426;30;20037;-81
2022/02/16 08:59:00;;;;;;;10.25;6.15;;;9.80;90.70;;;;;;4711109;30;20029;-81
2022/02/16 09:01:31;;;;;;;8.88;5.35;;;9.90;90.80;;;;;;4711386;30;20053;-81
2022/02/16 09:04:00;;;;;;;11.20;5.60;;;9.90;90.30;;;;;;4711530;30;20317;-81
2022/02/16 09:06:27;;;;;;;10.73;5.82;;;9.90;90.50;;;;;;4725556;30;20116;-81
2022/02/16 09:08:53;;;;;;;11.98;5.28;;;10.00;90.50;;;;;;4710982;30;20072;-81
2022/02/16 09:11:19;;;;;;;5.63;4.53;;;10.00;90.00;;;;;;4710681;30;20095;-81
2022/02/16 09:13:45;;;;;;;9.43;5.38;;;10.10;90.50;;;;;;4725666;30;20048;-81
2022/02/16 09:16:11;;;;;;;6.32;4.93;;;10.20;90.30;;;;;;4739724;30;20051;-81
2022/02/16 09:18:37;;;;;;;13.25;5.55;;;10.30;90.40;;;;;;4725276;30;20037;-81
2022/02/16 09:21:05;;;;;;;8.65;4.93;;;10.40;88.00;;;;;;4696806;30;20043;-81
2022/02/16 09:23:36;;;;;;;8.20;4.95;;;10.50;87.90;;;;;;4711238;30;20102;-81
2022/02/16 09:26:03;;;;;;;10.05;4.50;;;10.60;88.50;;;;;;4710715;30;20037;-82
2022/02/16 09:28:30;;;;;;;7.85;3.80;;;10.80;87.10;;;;;;4696689;30;20229;-81
2022/02/16 09:30:57;;;;;;;9.00;3.50;;;10.90;84.80;;;;;;4710875;30;20068;-81
2022/02/16 09:33:24;;;;;;;6.95;3.65;;;11.10;85.30;;;;;;4725144;30;20240;-82
2022/02/16 09:35:50;;;;;;;6.93;3.70;;;11.30;83.90;;;;;;4725159;30;20071;-81
2022/02/16 09:38:16;;;;;;;6.05;3.28;;;11.40;82.50;;;;;;4725126;30;20240;-81
2022/02/16 09:40:46;;;;;;;8.10;4.03;;;11.50;81.60;;;;;;4695554;30;20071;-81
2022/02/16 09:43:17;;;;;;;6.00;3.72;;;11.70;80.90;;;;;;4710848;30;20047;-80
2022/02/16 09:45:44;;;;;;;4.78;3.47;;;11.80;80.40;;;;;;4710095;30;20056;-80
2022/02/16 09:48:11;;;;;;;5.90;3.75;;;11.80;79.90;;;;;;4725068;30;20033;-81
2022/02/16 09:50:37;;;;;;;7.97;3.40;;;11.90;79.90;;;;;;4710292;30;20037;-81
2022/02/16 09:53:03;;;;;;;6.57;2.85;;;12.10;79.40;;;;;;4725087;30;20295;-81
2022/02/16 09:55:30;;;;;;;5.75;3.55;;;12.10;79.00;;;;;;4724943;30;20033;-80
2022/02/16 09:57:56;;;;;;;3.45;2.55;;;12.30;78.20;;;;;;4710640;30;20043;-80
2022/02/16 10:00:22;;;;;;;5.78;2.40;;;12.40;76.50;;;;;;4710475;30;20153;-81
2022/02/16 10:02:48;;;;;;;4.07;2.60;;;12.50;76.30;;;;;;4724909;30;20063;-81
2022/02/16 10:05:16;;;;;;;4.40;2.30;;;12.50;75.60;;;;;;4696027;30;20056;-81
2022/02/16 10:07:47;;;;;;;5.80;2.95;;;12.70;76.00;;;;;;4719237;30;20064;-81
2022/02/16 10:10:18;;;;;;;7.32;3.00;;;12.80;73.70;;;;;;4724617;30;20053;-81
2022/02/16 10:12:51;;;;;;;9.30;2.58;;;12.90;74.20;;;;;;4724756;30;20025;-81
2022/02/16 10:15:19;;;;;;;5.43;2.35;;;12.90;74.10;;;;;;4724679;30;20091;-81
2022/02/16 10:17:46;;;;;;;5.32;2.25;;;13.10;74.10;;;;;;4724723;30;20220;-81
2022/02/16 10:20:16;;;;;;;5.43;3.17;;;13.10;73.60;;;;;;4739467;30;20041;-81
2022/02/16 10:22:49;;;;;;;4.95;2.53;;;13.10;72.40;;;;;;4724724;30;20043;-82
2022/02/16 10:25:19;;;;;;;3.20;2.00;;;13.10;73.00;;;;;;4724766;30;20041;-81
2022/02/16 10:28:11;;;;;;;5.72;1.80;;;13.20;72.10;;;;;;4725667;30;20104;-81
2022/02/16 10:31:00;;;;;;;3.50;2.50;;;13.20;71.30;;;;;;4724687;30;20033;-81
2022/02/16 10:33:27;;;;;;;4.07;2.33;;;13.30;71.90;;;;;;4739836;30;20029;-81
2022/02/16 10:35:59;;;;;;;3.70;1.88;;;13.40;72.50;;;;;;4709600;30;20329;-81
2022/02/16 10:38:25;;;;;;;3.47;2.47;;;13.60;71.10;;;;;;4724735;30;20077;-81
2022/02/16 10:41:07;;;;;;;4.05;1.77;;;13.70;71.30;;;;;;4739257;30;20282;-81
2022/02/16 10:43:39;;;;;;;8.02;1.65;;;13.70;69.60;;;;;;4724722;30;20245;-81
2022/02/16 10:46:25;;;;;;;3.63;2.22;;;13.70;69.30;;;;;;4724245;30;20407;-80
2022/02/16 10:49:14;;;;;;;2.65;1.65;;;13.70;68.90;;;;;;4719006;30;20044;-80
2022/02/16 10:51:42;;;;;;;3.17;1.73;;;13.80;68.20;;;;;;4724312;30;20040;-80
2022/02/16 10:54:20;;;;;;;3.80;2.03;;;13.80;68.30;;;;;;4727578;30;20040;-81
2022/02/16 10:56:48;;;;;;;3.78;2.05;;;14.00;68.30;;;;;;4713274;30;20032;-80
2022/02/16 10:59:14;;;;;;;6.18;2.03;;;13.90;66.70;;;;;;4727898;30;20104;-80
2022/02/16 11:01:42;;;;;;;2.38;1.52;;;13.90;66.00;;;;;;4742424;30;20028;-80
2022/02/16 11:04:09;;;;;;;3.47;1.60;;;14.00;64.00;;;;;;4698979;30;20418;-81
2022/02/16 11:06:47;;;;;;;5.45;1.80;;;14.00;65.10;;;;;;4728522;30;20044;-81
2022/02/16 11:09:20;;;;;;;2.08;1.30;;;14.10;64.10;;;;;;4713102;30;20039;-81
2022/02/16 11:11:51;;;;;;;3.00;1.75;;;14.20;63.90;;;;;;4739896;30;20103;-81
2022/02/16 11:14:21;;;;;;;2.72;1.85;;;14.10;63.20;;;;;;4742209;30;20033;-81
2022/02/16 11:16:48;;;;;;;3.05;1.77;;;14.10;63.80;;;;;;4722533;30;20224;-81
2022/02/16 11:19:37;;;;;;;3.25;2.08;;;14.10;63.80;;;;;;4721993;30;20120;-81
2022/02/16 11:22:06;;;;;;;2.33;1.67;;;14.20;63.50;;;;;;4742071;30;20075;-80
2022/02/16 11:24:41;;;;;;;1.95;1.42;;;14.40;62.30;;;;;;4712884;30;20049;-80
2022/02/16 11:27:29;;;;;;;2.80;1.35;;;14.30;58.90;;;;;;4728176;30;20127;-80
2022/02/16 11:30:07;;;;;;;3.78;2.10;;;14.30;59.80;;;;;;4732807;30;20079;-80
2022/02/16 11:32:42;;;;;;;3.25;2.13;;;14.40;61.40;;;;;;4718257;30;20033;-80
2022/02/16 11:35:21;;;;;;;2.88;1.85;;;14.30;63.70;;;;;;4732020;30;20037;-80
2022/02/16 11:37:50;;;;;;;2.42;1.55;;;14.30;63.90;;;;;;4727313;30;20041;-80
2022/02/16 11:40:18;;;;;;;3.60;1.63;;;14.30;61.70;;;;;;4727279;30;20037;-80
2022/02/16 11:42:46;;;;;;;;;;;14.50;61.10;;;;;;4727522;30;20076;-80
2022/02/16 11:45:17;;;;;;;6.72;1.77;;;14.50;59.60;;;;;;4726955;30;19961;-80
2022/02/16 11:47:43;;;;;;;2.60;1.40;;;14.60;59.60;;;;;;4726631;30;20089;-80
2022/02/16 11:50:09;;;;;;;3.50;1.33;;;14.60;58.50;;;;;;4712522;30;20049;-81
2022/02/16 11:52:57;;;;;;;1.85;1.50;;;14.50;57.60;;;;;;4727125;30;20040;-81
2022/02/16 11:55:29;;;;;;;3.80;1.20;;;14.40;57.60;;;;;;4726751;30;20108;-81
2022/02/16 11:58:13;;;;;;;4.53;0.98;;;14.50;57.60;;;;;;4726949;30;20037;-81
2022/02/16 12:00:55;;;;;;;2.10;1.20;;;14.50;55.90;;;;;;4708710;30;20041;-80
2022/02/16 12:03:37;;;;;;;1.13;0.77;;;14.60;56.00;;;;;;4726357;30;20045;-80
2022/02/16 12:06:13;;;;;;;0.95;0.82;;;14.70;56.00;;;;;;4726510;30;20041;-81
2022/02/16 12:08:51;;;;;;;1.33;0.90;;;14.70;55.90;;;;;;4712269;30;20029;-81
2022/02/16 12:11:22;;;;;;;1.80;1.23;;;14.80;55.80;;;;;;4726728;30;20041;-81
2022/02/16 12:13:55;;;;;;;3.75;1.33;;;14.80;56.00;;;;;;4726648;30;20036;-81
2022/02/16 12:16:33;;;;;;;2.20;1.10;;;14.90;56.50;;;;;;4725637;30;20038;-81
2022/02/16 12:19:03;;;;;;;2.72;1.00;;;15.00;55.70;;;;;;4726381;30;20033;-80
2022/02/16 12:21:50;;;;;;;2.30;1.05;;;15.10;55.40;;;;;;4726530;30;20037;-81
2022/02/16 12:24:19;;;;;;;3.28;0.70;;;15.20;54.70;;;;;;4735445;30;20247;-82
2022/02/16 12:26:50;;;;;;;1.70;1.30;;;15.30;54.70;;;;;;4727359;30;20061;-81
2022/02/16 12:29:20;;;;;;;2.78;1.27;;;15.30;54.50;;;;;;4721787;30;20048;-81
2022/02/16 12:31:51;;;;;;;2.33;1.05;;;15.30;55.00;;;;;;4710959;30;20048;-81
2022/02/16 12:34:23;;;;;;;2.42;1.25;;;15.30;54.30;;;;;;4726074;30;20033;-81
2022/02/16 12:36:56;;;;;;;1.83;0.90;;;15.30;54.30;;;;;;4711474;30;20146;-81
2022/02/16 12:39:23;;;;;;;3.00;1.27;;;15.30;54.10;;;;;;4725467;30;20037;-81
2022/02/16 12:41:50;;;;;;;1.80;1.15;;;15.30;54.50;;;;;;4727205;30;20044;-81
2022/02/16 12:44:20;;;;;;;1.38;1.10;;;15.40;54.50;;;;;;4726168;30;20039;-81
2022/02/16 12:46:51;;;;;;;1.70;1.02;;;15.30;54.40;;;;;;4711236;30;20099;-80
2022/02/16 12:49:21;;;;;;;2.35;1.17;;;15.40;54.20;;;;;;4711511;30;20135;-81
2022/02/16 12:51:49;;;;;;;21.35;1.73;;;15.50;54.70;;;;;;4726238;30;20041;-81
2022/02/16 12:54:19;;;;;;;1.85;0.98;;;15.70;55.20;;;;;;4708353;30;20033;-82
2022/02/16 12:56:48;;;;;;;1.00;0.77;;;15.80;54.10;;;;;;4722088;30;20025;-81
2022/02/16 12:59:23;;;;;;;1.20;0.90;;;15.70;53.50;;;;;;4711158;30;20045;-82
2022/02/16 13:02:08;;;;;;;2.58;0.88;;;15.80;53.60;;;;;;4711411;30;20072;-81
2022/02/16 13:04:33;;;;;;;3.85;1.23;;;15.90;52.50;;;;;;4725644;30;20045;-82
2022/02/16 13:06:59;;;;;;;1.17;0.73;;;15.80;52.90;;;;;;4725559;30;20336;-82
2022/02/16 13:09:29;;;;;;;1.55;0.77;;;15.70;51.70;;;;;;4711283;30;20455;-81
2022/02/16 13:11:58;;;;;;;2.53;0.95;;;15.60;52.80;;;;;;4711150;30;20047;-82
2022/02/16 13:14:29;;;;;;;2.42;0.65;;;15.70;53.30;;;;;;4711032;30;20036;-81
2022/02/16 13:16:56;;;;;;;4.97;0.80;;;15.70;52.60;;;;;;4710894;30;20037;-81
2022/02/16 13:19:41;;;;;;;0.68;0.57;;;15.70;51.50;;;;;;4710921;30;20037;-81
2022/02/16 13:22:07;;;;;;;1.38;0.52;;;15.60;50.60;;;;;;4711079;30;20128;-81
2022/02/16 13:24:33;;;;;;;0.50;0.50;;;15.50;49.90;;;;;;4696742;30;20112;-82
2022/02/16 13:27:04;;;;;;;2.15;0.80;;;15.60;50.30;;;;;;4710757;30;20256;-82
2022/02/16 13:29:31;;;;;;;1.30;0.57;;;15.60;49.70;;;;;;4725439;30;20229;-82
2022/02/16 13:31:57;;;;;;;1.40;0.85;;;15.60;51.00;;;;;;4725252;30;20263;-81
2022/02/16 13:34:23;;;;;;;3.40;0.93;;;15.60;49.50;;;;;;4710694;30;20337;-81
2022/02/16 13:36:49;;;;;;;4.85;1.40;;;15.50;49.40;;;;;;4711088;30;20029;-81
2022/02/16 13:39:24;;;;;;;2.17;0.70;;;15.40;50.80;;;;;;4725294;30;20229;-80
2022/02/16 13:41:54;;;;;;;3.78;0.98;;;15.40;50.30;;;;;;4725215;30;20040;-80
2022/02/16 13:44:35;;;;;;;2.85;0.90;;;15.40;51.20;;;;;;4725221;30;20245;-81
2022/02/16 13:47:04;;;;;;;1.42;0.50;;;15.40;49.60;;;;;;4710459;30;20115;-81
2022/02/16 13:49:32;;;;;;;1.33;0.80;;;15.30;49.20;;;;;;4696443;30;20052;-82
2022/02/16 13:52:03;;;;;;;2.95;1.17;;;15.30;49.20;;;;;;4725169;30;20072;-82
2022/02/16 13:54:31;;;;;;;1.35;0.70;;;15.30;49.90;;;;;;4710598;30;20352;-82
2022/02/16 13:57:06;;;;;;;2.42;1.20;;;15.30;49.50;;;;;;4725081;30;20029;-82
2022/02/16 13:59:33;;;;;;;2.70;1.30;;;15.30;49.00;;;;;;4710753;30;20033;-82
2022/02/16 14:02:11;;;;;;;2.10;0.53;;;15.20;49.20;;;;;;4696405;30;20053;-82
2022/02/16 14:04:50;;;;;;;3.42;0.80;;;15.20;49.70;;;;;;4724988;30;20041;-82
2022/02/16 14:07:16;;;;;;;1.75;0.85;;;15.00;50.40;;;;;;4725170;30;20029;-82
2022/02/16 14:09:43;;;;;;;1.70;0.85;;;15.00;50.70;;;;;;4710460;30;20053;-82
2022/02/16 14:12:11;;;;;;;6.63;0.98;;;14.90;51.30;;;;;;4696222;30;20060;-82
2022/02/16 14:14:38;;;;;;;3.75;1.00;;;14.90;51.60;;;;;;4710696;30;20037;-82
2022/02/16 14:17:05;;;;;;;8.10;1.10;;;14.90;52.20;;;;;;4710432;30;20041;-82
2022/02/16 14:19:33;;;;;;;2.10;0.63;;;14.90;52.00;;;;;;4724701;30;20029;-82
2022/02/16 14:22:00;;;;;;;3.87;0.83;;;14.80;51.60;;;;;;4725045;30;20033;-82
2022/02/16 14:24:28;;;;;;;1.30;0.45;;;14.80;51.90;;;;;;4718902;30;20041;-83
2022/02/16 14:26:54;;;;;;;2.17;0.70;;;14.80;52.10;;;;;;4711094;30;20045;-82
2022/02/16 14:29:20;;;;;;;1.40;0.63;;;14.90;52.30;;;;;;4728067;30;20069;-82
2022/02/16 14:31:46;;;;;;;2.28;0.70;;;14.90;51.70;;;;;;4724001;30;20045;-82
2022/02/16 14:34:19;;;;;;;0.98;0.57;;;15.00;51.70;;;;;;4727522;30;20074;-82
2022/02/16 14:36:47;;;;;;;1.40;0.52;;;15.10;51.20;;;;;;4728172;30;20025;-82
2022/02/16 14:39:13;;;;;;;;;;;15.20;51.30;;;;;;4728423;30;20353;-82
2022/02/16 14:41:40;;;;;;;3.40;1.00;;;15.30;50.60;;;;;;4713558;30;20199;-82
2022/02/16 14:44:06;;;;;;;1.60;0.63;;;15.30;51.20;;;;;;4699237;30;20041;-82
2022/02/16 14:46:36;;;;;;;3.53;0.80;;;15.20;51.10;;;;;;4713412;30;20087;-84
2022/02/16 14:49:02;;;;;;;2.30;0.70;;;15.30;51.30;;;;;;4699415;30;20055;-82
2022/02/16 14:51:30;;;;;;;6.35;1.13;;;15.30;50.60;;;;;;4727909;30;20376;-81
2022/02/16 14:53:57;;;;;;;8.23;1.30;;;15.30;50.60;;;;;;4706819;30;20041;-84
2022/02/16 14:56:23;;;;;;;10.20;0.95;;;15.40;50.50;;;;;;4724283;30;20052;-85
2022/02/16 14:58:50;;;;;;;3.08;0.80;;;15.30;50.30;;;;;;4694770;30;20340;-84
2022/02/16 15:01:19;;;;;;;1.02;0.50;;;15.20;50.30;;;;;;4713314;30;20335;-84
2022/02/16 15:03:45;;;;;;;4.60;0.90;;;15.00;50.20;;;;;;4726516;30;20380;-84
2022/02/16 15:06:11;;;;;;;2.88;0.98;;;14.90;50.80;;;;;;4711476;30;20053;-85
2022/02/16 15:08:37;;;;;;;1.98;0.90;;;14.90;51.50;;;;;;4729384;30;20174;-85
2022/02/16 15:11:05;;;;;;;2.90;0.93;;;14.70;52.10;;;;;;4728484;30;20070;-85
2022/02/16 15:13:30;;;;;;;5.13;1.00;;;14.60;52.90;;;;;;4716802;30;20083;-84
2022/02/16 15:15:56;;;;;;;3.20;1.38;;;14.50;53.10;;;;;;4697636;30;20040;-84
2022/02/16 15:18:22;;;;;;;2.05;0.70;;;14.40;53.60;;;;;;4726579;30;20033;-84
2022/02/16 15:20:49;;;;;;;2.88;1.17;;;14.20;55.40;;;;;;4712381;30;20041;-84
2022/02/16 15:23:15;;;;;;;3.20;0.93;;;14.20;56.50;;;;;;4741246;30;20086;-84
2022/02/16 15:25:42;;;;;;;;;;;14.10;57.30;;;;;;4726865;30;20291;-84
2022/02/16 15:28:09;;;;;;;2.33;1.50;;;14.00;58.40;;;;;;4712224;30;19923;-85
2022/02/16 15:30:37;;;;;;;4.07;0.85;;;13.90;58.90;;;;;;4726770;30;20049;-85
2022/02/16 15:33:06;;;;;;;3.53;1.38;;;13.80;59.30;;;;;;4726402;30;20052;-85
2022/02/16 15:35:32;;;;;;;2.10;1.00;;;13.60;59.80;;;;;;4726563;30;20031;-85
2022/02/16 15:38:00;;;;;;;6.13;1.02;;;13.50;60.60;;;;;;4711848;30;20337;-85
2022/02/16 15:40:25;;;;;;;1.88;0.95;;;13.50;60.20;;;;;;4725716;30;20041;-84
2022/02/16 15:42:52;;;;;;;2.72;1.10;;;13.50;60.50;;;;;;4726471;30;20033;-84
2022/02/16 15:45:18;;;;;;;3.08;1.20;;;13.50;61.30;;;;;;4726283;30;20108;-84
2022/02/16 15:47:44;;;;;;;1.80;0.90;;;13.40;61.70;;;;;;4711528;30;20060;-84
2022/02/16 15:50:10;;;;;;;3.65;1.00;;;13.40;61.70;;;;;;4728129;30;20229;-84
2022/02/16 15:52:36;;;;;;;4.00;1.65;;;13.30;62.30;;;;;;4711630;30;20041;-84
2022/02/16 15:55:04;;;;;;;1.63;0.73;;;13.20;63.00;;;;;;4726289;30;20348;-84
2022/02/16 15:57:30;;;;;;;7.32;1.35;;;13.10;63.30;;;;;;4725672;30;20116;-84
2022/02/16 15:59:56;;;;;;;2.58;1.42;;;13.00;63.80;;;;;;4734705;30;20037;-84
2022/02/16 16:02:25;;;;;;;4.25;1.55;;;13.00;64.20;;;;;;4726212;30;20249;-85
2022/02/16 16:04:50;;;;;;;1.77;1.15;;;12.80;64.70;;;;;;4726268;30;20116;-84
2022/02/16 16:07:17;;;;;;;7.40;1.40;;;12.70;65.00;;;;;;4725788;30;20045;-84
2022/02/16 16:09:43;;;;;;;6.10;1.50;;;12.70;65.20;;;;;;4697398;30;20052;-84
2022/02/16 16:12:09;;;;;;;2.47;1.10;;;12.60;65.40;;;;;;4711415;30;20053;-85
2022/02/16 16:14:35;;;;;;;1.88;1.20;;;12.60;65.50;;;;;;4697471;30;20037;-84
2022/02/16 16:17:00;;;;;;;3.38;1.60;;;12.50;66.10;;;;;;4697002;30;20033;-83
2022/02/16 16:19:27;;;;;;;4.47;2.00;;;12.50;66.40;;;;;;4711247;30;20037;-84
2022/02/16 16:21:53;;;;;;;6.20;1.67;;;12.40;66.80;;;;;;4740047;30;20325;-82
2022/02/16 16:24:19;;;;;;;7.57;1.90;;;12.40;67.00;;;;;;4697424;30;20039;-83
2022/02/16 16:26:46;;;;;;;10.32;1.90;;;12.30;67.70;;;;;;4710634;30;20061;-83
2022/02/16 16:29:18;;;;;;;5.95;1.77;;;12.30;68.20;;;;;;4723595;30;20275;-83
2022/02/16 16:31:46;;;;;;;10.20;2.10;;;12.20;68.20;;;;;;4710272;30;20052;-83
2022/02/16 16:34:12;;;;;;;5.10;1.63;;;12.30;68.40;;;;;;4722440;30;20049;-83
2022/02/16 16:36:39;;;;;;;2.55;1.98;;;12.20;68.60;;;;;;4710831;30;20044;-83
2022/02/16 16:39:07;;;;;;;3.85;1.73;;;12.30;68.50;;;;;;4696786;30;20041;-83
2022/02/16 16:41:33;;;;;;;7.68;2.08;;;12.30;68.50;;;;;;4713764;30;20041;-83
2022/02/16 16:43:59;;;;;;;3.28;1.90;;;12.30;68.70;;;;;;4696614;30;20072;-82